»·PEaware :: N5MW KSMO-KPGA

N5MW :: KSMO-KPGA

FLIGHT INFORMATION

Flight Status: Arrived
Operator: Privately registered:
United States
More flights under this callsign
Pilot: Max W. (2591)
Aircraft: Unknown
(SF50)
More flights by this aircraft type
Origin: KSMO Santa Monica Mun
United States
Destination: KPGA Page Mun
United States
More flights between these airports :: More routes between these airports
Route: +LANGE PMD HEC
File this flight plan on PilotEdge
Remarks:
Altitude:
(Current/Filed)
27,000ft
Speed:
(Current/Filed)
450kts
Departed: 29-Aug-18 01:49 PM
Arrived: 29-Aug-18 03:14 PM
Distance/Time
Traveled:
384nm/1:24
Distance/Time
To Go:
Arrived

Flight Plot

Page will automatically refresh every two minutes.

Flight plan parsing failed; only flown route is shown


Map Options




Map Legend


Flown Route
Filed Route
Departure Airport
Arrival Airport
Navaid (VOR, NDB)
Fix

Horizontal Profiles

Position Reports

Time Latitude Longitude Heading Altitude Ground
Speed
29-Aug-18 13:27 34.016694 -118.452139 135 137ft 0kts
29-Aug-18 13:28 34.016694 -118.452139 135 137ft 0kts
29-Aug-18 13:29 34.016694 -118.452139 135 137ft 0kts
29-Aug-18 13:30 34.016694 -118.452139 135 137ft 0kts
29-Aug-18 13:31 34.016694 -118.452139 135 137ft 0kts
29-Aug-18 13:32 34.016694 -118.452139 135 137ft 0kts
29-Aug-18 13:33 34.016694 -118.452139 135 137ft 0kts
29-Aug-18 13:34 34.016694 -118.452139 135 137ft 0kts
29-Aug-18 13:35 34.016694 -118.452139 135 137ft 0kts
29-Aug-18 13:36 34.016694 -118.452139 135 137ft 0kts
29-Aug-18 13:37 34.016694 -118.452139 135 137ft 0kts
29-Aug-18 13:38 34.016694 -118.452139 135 137ft 0kts
29-Aug-18 13:39 34.016694 -118.452139 135 137ft 0kts
29-Aug-18 13:40 34.016694 -118.452139 135 137ft 0kts
29-Aug-18 13:41 34.016694 -118.452139 135 137ft 0kts
29-Aug-18 13:42 34.016493 -118.451640 62 137ft 8kts
29-Aug-18 13:43 34.018577 -118.449166 43 137ft 11kts
29-Aug-18 13:44 34.020704 -118.446656 43 137ft 10kts
29-Aug-18 13:45 34.020987 -118.446339 52 137ft 0kts
29-Aug-18 13:46 34.020987 -118.446339 52 137ft 0kts
29-Aug-18 13:47 34.020987 -118.446339 52 137ft 0kts
29-Aug-18 13:48 34.020987 -118.446339 52 137ft 0kts
29-Aug-18 13:49 34.020987 -118.446339 52 137ft 0kts
29-Aug-18 13:50 34.019142 -118.447363 228 137ft 54kts
29-Aug-18 13:51 33.995942 -118.474487 228 1455ft 150kts
29-Aug-18 13:52 33.990794 -118.522282 281 3787ft 162kts
29-Aug-18 13:53 33.997673 -118.577461 281 5986ft 180kts
29-Aug-18 13:54 34.033784 -118.610697 351 7914ft 170kts
29-Aug-18 13:55 34.085694 -118.619318 4 9024ft 205kts
29-Aug-18 13:56 34.144011 -118.588589 22 9435ft 231kts
29-Aug-18 13:57 34.189238 -118.564334 22 12163ft 173kts
29-Aug-18 13:58 34.222352 -118.525511 65 13661ft 185kts
29-Aug-18 13:59 34.239379 -118.466409 64 15067ft 188kts
29-Aug-18 14:00 34.256601 -118.406616 64 16383ft 190kts
29-Aug-18 14:01 34.274031 -118.345997 63 17615ft 192kts
29-Aug-18 14:02 34.291547 -118.284940 63 18759ft 194kts
29-Aug-18 14:03 34.309270 -118.223013 63 20159ft 196kts
29-Aug-18 14:04 34.327114 -118.160563 62 21487ft 198kts
29-Aug-18 14:05 34.345105 -118.097449 62 22718ft 200kts
29-Aug-18 14:06 34.363226 -118.033709 62 23859ft 202kts
29-Aug-18 14:07 34.381461 -117.969444 62 24911ft 204kts
29-Aug-18 14:08 34.399896 -117.904312 61 25889ft 205kts
29-Aug-18 14:09 34.418417 -117.838727 61 26793ft 207kts
29-Aug-18 14:10 34.437866 -117.769894 62 27044ft 232kts
29-Aug-18 14:11 34.459707 -117.692120 63 27040ft 254kts
29-Aug-18 14:12 34.483056 -117.608709 63 27037ft 266kts
29-Aug-18 14:13 34.507082 -117.522663 63 27035ft 273kts
29-Aug-18 14:14 34.531423 -117.435228 63 27034ft 276kts
29-Aug-18 14:15 34.555881 -117.347101 64 27033ft 277kts
29-Aug-18 14:16 34.578604 -117.264973 64 27036ft 279kts
29-Aug-18 14:17 34.595465 -117.205363 75 27048ft 294kts
29-Aug-18 14:18 34.622081 -117.107168 74 27049ft 317kts
29-Aug-18 14:19 34.650625 -117.003028 73 27017ft 331kts
29-Aug-18 14:20 34.679874 -116.895979 73 26984ft 337kts
29-Aug-18 14:21 34.709432 -116.787386 73 26974ft 340kts
29-Aug-18 14:22 34.738941 -116.678489 73 26975ft 341kts
29-Aug-18 14:23 34.768478 -116.569063 73 26976ft 341kts
29-Aug-18 14:24 34.798898 -116.459734 62 26956ft 344kts
29-Aug-18 14:25 34.844950 -116.357901 61 26986ft 344kts
29-Aug-18 14:26 34.890490 -116.257832 62 27016ft 343kts
29-Aug-18 14:27 34.936465 -116.156522 62 27039ft 343kts
29-Aug-18 14:28 34.982637 -116.054464 62 27030ft 345kts
29-Aug-18 14:29 35.029060 -115.951542 62 27017ft 348kts
29-Aug-18 14:30 35.075697 -115.847809 63 27023ft 349kts
29-Aug-18 14:31 35.120903 -115.746967 63 27024ft 350kts
29-Aug-18 14:32 35.167415 -115.642919 63 27017ft 350kts
29-Aug-18 14:33 35.213917 -115.538574 63 27009ft 350kts
29-Aug-18 14:34 35.260195 -115.434393 63 27010ft 348kts
29-Aug-18 14:35 35.305665 -115.331741 63 26992ft 350kts
29-Aug-18 14:36 35.351905 -115.227008 63 26999ft 349kts
29-Aug-18 14:37 35.397899 -115.122534 63 26995ft 349kts
29-Aug-18 14:38 35.443844 -115.017835 63 26981ft 349kts
29-Aug-18 14:39 35.489691 -114.913019 64 26984ft 348kts
29-Aug-18 14:40 35.535285 -114.808460 64 26965ft 348kts
29-Aug-18 14:41 35.573254 -114.721150 64 26953ft 348kts
29-Aug-18 14:42 35.625873 -114.599760 64 26955ft 348kts
29-Aug-18 14:43 35.663698 -114.512235 64 26937ft 349kts
29-Aug-18 14:44 35.708959 -114.407197 64 26976ft 347kts
29-Aug-18 14:45 35.760289 -114.287679 64 27065ft 345kts
29-Aug-18 14:46 35.797576 -114.200576 64 27101ft 345kts
29-Aug-18 14:47 35.842438 -114.095481 64 27102ft 347kts
29-Aug-18 14:48 35.887142 -113.990424 64 27103ft 348kts
29-Aug-18 14:49 35.931957 -113.884778 64 27104ft 348kts
29-Aug-18 14:50 35.976723 -113.778907 64 27105ft 349kts
29-Aug-18 14:51 36.021461 -113.672747 64 27101ft 349kts
29-Aug-18 14:52 36.066145 -113.566390 64 27089ft 350kts
29-Aug-18 14:53 36.109409 -113.463062 64 27089ft 349kts
29-Aug-18 14:54 36.153000 -113.358643 64 27145ft 347kts
29-Aug-18 14:55 36.195588 -113.256297 65 27205ft 345kts
29-Aug-18 14:56 36.239508 -113.150416 65 27207ft 346kts
29-Aug-18 14:57 36.283207 -113.044726 65 27208ft 347kts
29-Aug-18 14:58 36.327070 -112.938197 64 27209ft 347kts
29-Aug-18 14:59 36.370962 -112.831335 63 26975ft 355kts
29-Aug-18 15:00 36.416914 -112.719156 63 25988ft 374kts
29-Aug-18 15:01 36.464631 -112.602188 63 24816ft 385kts
29-Aug-18 15:02 36.512978 -112.483223 63 23640ft 387kts
29-Aug-18 15:03 36.561360 -112.363749 63 22465ft 387kts
29-Aug-18 15:04 36.608102 -112.247886 63 20946ft 393kts
29-Aug-18 15:05 36.657210 -112.125711 63 19149ft 395kts
29-Aug-18 15:06 36.706078 -112.003670 63 17353ft 393kts
29-Aug-18 15:07 36.754221 -111.882981 63 15568ft 389kts
29-Aug-18 15:08 36.802233 -111.762159 63 13374ft 393kts
29-Aug-18 15:09 36.849572 -111.642520 63 10880ft 371kts
29-Aug-18 15:10 36.886529 -111.543690 79 9464ft 262kts
29-Aug-18 15:11 36.851585 -111.479557 150 7448ft 225kts
29-Aug-18 15:12 36.852838 -111.438978 7 6632ft 111kts
29-Aug-18 15:13 36.881275 -111.438190 346 5567ft 100kts
29-Aug-18 15:14 36.908752 -111.444293 347 4616ft 99kts
29-Aug-18 15:15 36.925952 -111.448830 256 4257ft 8kts
29-Aug-18 15:16 36.925818 -111.450868 271 4257ft 0kts

Navigation Log

Ident Type
Flight plan parsing failed, navigation log unavailable